createdAt,value
2018-02-01T00:01:15.841Z,10.60
2018-02-01T00:03:41.853Z,10.73
2018-02-01T00:06:07.882Z,9.30
2018-02-01T00:08:35.051Z,9.87
2018-02-01T00:11:01.033Z,9.60
2018-02-01T00:13:27.057Z,8.80
2018-02-01T00:15:53.073Z,9.73
2018-02-01T00:18:25.141Z,9.47
2018-02-01T00:20:51.169Z,9.83
2018-02-01T00:23:17.180Z,11.10
2018-02-01T00:25:43.192Z,10.30
2018-02-01T00:28:10.357Z,9.43
2018-02-01T00:30:36.392Z,9.77
2018-02-01T00:33:02.369Z,11.27
2018-02-01T00:35:28.396Z,11.00
2018-02-01T00:38:13.608Z,11.13
2018-02-01T00:40:39.637Z,11.17
2018-02-01T00:43:05.632Z,9.20
2018-02-01T00:45:31.693Z,9.97
2018-02-01T00:47:58.025Z,11.03
2018-02-01T00:50:24.037Z,9.90
2018-02-01T00:52:50.013Z,11.37
2018-02-01T00:55:16.048Z,12.67
2018-02-01T00:57:49.900Z,11.53
2018-02-01T01:00:15.917Z,12.00
2018-02-01T01:02:41.937Z,11.17
2018-02-01T01:05:07.972Z,11.57
2018-02-01T01:07:34.026Z,11.97
2018-02-01T01:10:00.050Z,12.97
2018-02-01T01:12:26.068Z,12.30
2018-02-01T01:14:52.080Z,12.13
2018-02-01T01:17:19.253Z,12.73
2018-02-01T01:19:45.282Z,10.83
2018-02-01T01:22:11.257Z,11.97
2018-02-01T01:24:37.334Z,10.80
2018-02-01T01:27:14.021Z,10.93
2018-02-01T01:29:40.041Z,10.90
2018-02-01T01:32:06.057Z,10.33
2018-02-01T01:34:32.049Z,10.60
2018-02-01T01:37:00.166Z,10.90
2018-02-01T01:39:26.180Z,11.63
2018-02-01T01:41:52.159Z,10.67
2018-02-01T01:44:18.144Z,10.90
2018-02-01T01:46:46.228Z,11.47
2018-02-01T01:49:12.209Z,10.60
2018-02-01T01:51:38.237Z,10.90
2018-02-01T01:54:04.249Z,11.30
2018-02-01T01:56:32.406Z,10.63
2018-02-01T01:58:58.429Z,11.47
2018-02-01T02:01:24.452Z,11.50
2018-02-01T02:03:50.437Z,10.67
2018-02-01T02:06:16.417Z,11.07
2018-02-01T02:08:45.880Z,11.47
2018-02-01T02:11:11.898Z,10.40
2018-02-01T02:13:37.914Z,10.03
2018-02-01T02:16:03.928Z,10.90
2018-02-01T02:18:31.100Z,10.00
2018-02-01T02:20:57.125Z,11.77
2018-02-01T02:23:23.128Z,10.83
2018-02-01T02:25:49.147Z,12.00
2018-02-01T02:28:15.304Z,12.37
2018-02-01T02:30:41.282Z,10.90
2018-02-01T02:33:07.305Z,11.20
2018-02-01T02:35:33.324Z,10.60
2018-02-01T02:38:00.524Z,10.93
2018-02-01T02:40:26.496Z,11.50
2018-02-01T02:42:52.526Z,10.73
2018-02-01T02:45:18.544Z,10.47
2018-02-01T02:47:47.753Z,10.27
2018-02-01T02:50:13.732Z,9.70
2018-02-01T02:52:39.752Z,9.07
2018-02-01T02:55:05.729Z,9.37
2018-02-01T02:57:38.940Z,9.30
2018-02-01T03:00:04.958Z,10.70
2018-02-01T03:02:30.972Z,10.30
2018-02-01T03:04:56.949Z,10.80
2018-02-01T03:07:26.164Z,11.93
2018-02-01T03:09:52.145Z,14.67
2018-02-01T03:12:18.164Z,12.80
2018-02-01T03:14:44.154Z,11.20
2018-02-01T03:17:14.009Z,11.10
2018-02-01T03:19:40.029Z,10.80
2018-02-01T03:22:06.017Z,10.00
2018-02-01T03:24:32.022Z,10.37
2018-02-01T03:27:03.010Z,10.67
2018-02-01T03:29:29.016Z,10.33
2018-02-01T03:31:55.028Z,11.30
2018-02-01T03:34:21.057Z,11.17
2018-02-01T03:36:52.554Z,14.07
2018-02-01T03:39:18.565Z,14.17
2018-02-01T03:41:44.584Z,12.57
2018-02-01T03:44:10.565Z,15.57
2018-02-01T03:46:36.740Z,13.40
2018-02-01T03:49:02.712Z,12.67
2018-02-01T03:51:28.720Z,11.37
2018-02-01T03:53:54.705Z,10.87
2018-02-01T03:56:26.965Z,10.40
2018-02-01T03:58:52.981Z,10.47
2018-02-01T04:01:18.965Z,11.50
2018-02-01T04:03:44.976Z,10.00
2018-02-01T04:06:10.965Z,10.53
2018-02-01T04:08:36.980Z,11.63
2018-02-01T04:11:02.998Z,11.00
2018-02-01T04:13:28.977Z,12.07
2018-02-01T04:15:54.960Z,15.23
2018-02-01T04:18:38.457Z,13.53
2018-02-01T04:21:04.437Z,16.90
2018-02-01T04:23:30.424Z,15.43
2018-02-01T04:25:56.480Z,20.10
2018-02-01T04:31:15.677Z,15.27
2018-02-01T04:33:41.699Z,13.20
2018-02-01T04:36:14.942Z,13.37
2018-02-01T04:38:40.953Z,12.07
2018-02-01T04:41:06.960Z,13.87
2018-02-01T04:43:32.937Z,15.57
2018-02-01T04:45:58.922Z,21.57
2018-02-01T04:48:24.941Z,26.00
2018-02-01T04:50:50.970Z,17.63
2018-02-01T04:53:17.000Z,19.10
2018-02-01T04:55:42.977Z,18.53
2018-02-01T04:58:14.577Z,15.17
2018-02-01T05:00:40.570Z,15.13
2018-02-01T05:03:06.597Z,15.30
2018-02-01T05:05:32.649Z,17.03
2018-02-01T05:08:02.564Z,14.50
2018-02-01T05:10:28.580Z,17.90
2018-02-01T05:12:54.593Z,17.13
2018-02-01T05:15:20.581Z,15.90
2018-02-01T05:17:52.026Z,17.13
2018-02-01T05:20:18.081Z,17.47
2018-02-01T05:22:44.079Z,16.10
2018-02-01T05:25:10.097Z,15.43
2018-02-01T05:27:36.123Z,14.77
2018-02-01T05:30:02.149Z,12.60
2018-02-01T05:32:28.132Z,13.03
2018-02-01T05:34:54.145Z,12.43
2018-02-01T05:37:20.334Z,13.33
2018-02-01T05:39:46.362Z,14.80
2018-02-01T05:42:12.385Z,13.07
2018-02-01T05:44:38.366Z,13.60
2018-02-01T05:47:04.517Z,14.77
2018-02-01T05:49:30.525Z,15.30
2018-02-01T05:51:56.501Z,17.47
2018-02-01T05:54:22.517Z,15.83
2018-02-01T05:56:51.781Z,15.90
2018-02-01T05:59:17.765Z,16.93
2018-02-01T06:01:43.749Z,22.00
2018-02-01T06:04:09.766Z,21.30
2018-02-01T06:06:37.076Z,26.50
2018-02-01T06:09:03.156Z,28.30
2018-02-01T06:11:29.164Z,25.90
2018-02-01T06:13:55.197Z,25.83
2018-02-01T06:16:22.185Z,25.77
2018-02-01T06:18:48.219Z,23.73
2018-02-01T06:21:14.233Z,18.30
2018-02-01T06:23:40.222Z,18.07
2018-02-01T06:26:07.453Z,16.90
2018-02-01T06:28:33.481Z,15.83
2018-02-01T06:30:59.493Z,19.87
2018-02-01T06:33:25.475Z,20.67
2018-02-01T06:35:52.669Z,23.03
2018-02-01T06:38:18.657Z,26.80
2018-02-01T06:40:44.653Z,28.60
2018-02-01T06:43:10.669Z,29.53
2018-02-01T06:45:36.691Z,32.47
2018-02-01T06:48:02.713Z,28.73
2018-02-01T06:50:28.713Z,27.00
2018-02-01T06:52:54.737Z,20.83
2018-02-01T06:55:20.748Z,24.30
2018-02-01T06:57:48.798Z,17.07
2018-02-01T07:00:15.621Z,18.33
2018-02-01T07:02:41.655Z,14.00
2018-02-01T07:05:07.632Z,16.07
2018-02-01T07:07:34.822Z,14.83
2018-02-01T07:10:00.841Z,16.03
2018-02-01T07:12:26.857Z,20.67
2018-02-01T07:14:52.873Z,13.63
2018-02-01T07:17:26.685Z,13.77
2018-02-01T07:19:52.704Z,18.43
2018-02-01T07:22:18.733Z,12.83
2018-02-01T07:24:44.717Z,13.13
2018-02-01T07:27:21.169Z,13.60
2018-02-01T07:29:47.193Z,14.63
2018-02-01T07:32:13.178Z,16.23
2018-02-01T07:49:59.749Z,13.40
2018-02-01T07:52:25.760Z,13.33
2018-02-01T07:54:51.737Z,12.00
2018-02-01T07:57:18.993Z,14.63
2018-02-01T07:59:45.017Z,14.83
2018-02-01T08:02:11.036Z,13.43
2018-02-01T08:04:37.056Z,14.40
2018-02-01T08:07:11.973Z,14.33
2018-02-01T08:09:37.969Z,14.60
2018-02-01T08:12:04.029Z,13.10
2018-02-01T08:14:30.006Z,12.90
2018-02-01T08:17:04.065Z,13.97
2018-02-01T08:19:30.116Z,14.20
2018-02-01T08:21:56.146Z,13.80
2018-02-01T08:24:22.209Z,14.20
2018-02-01T08:26:55.487Z,14.93
2018-02-01T08:29:21.504Z,14.77
2018-02-01T08:31:47.489Z,14.27
2018-02-01T08:34:13.510Z,15.27
2018-02-01T08:36:45.237Z,15.60
2018-02-01T08:39:11.213Z,15.30
2018-02-01T08:41:37.233Z,16.03
2018-02-01T08:44:03.288Z,15.80
2018-02-01T08:46:39.745Z,15.90
2018-02-01T08:49:05.806Z,14.30
2018-02-01T08:51:31.822Z,16.07
2018-02-01T08:53:57.882Z,14.57
2018-02-01T08:56:25.108Z,16.67
2018-02-01T08:58:51.123Z,16.50
2018-02-01T09:01:17.166Z,15.63
2018-02-01T09:03:43.148Z,14.13
2018-02-01T09:06:12.893Z,14.27
2018-02-01T09:08:38.914Z,13.43
2018-02-01T09:11:04.886Z,17.13
2018-02-01T09:13:30.905Z,14.47
2018-02-01T09:15:58.927Z,13.27
2018-02-01T09:18:24.909Z,13.13
2018-02-01T09:20:50.945Z,13.00
2018-02-01T09:23:16.981Z,14.60
2018-02-01T09:28:35.201Z,12.63
2018-02-01T09:31:01.249Z,14.80
2018-02-01T09:33:27.293Z,16.67
2018-02-01T09:35:54.273Z,14.20
2018-02-01T09:38:20.293Z,13.73
2018-02-01T09:40:46.312Z,14.63
2018-02-01T09:43:12.294Z,13.50
2018-02-01T09:45:45.363Z,12.93
2018-02-01T09:48:11.377Z,11.87
2018-02-01T09:50:37.393Z,13.60
2018-02-01T09:53:03.422Z,12.07
2018-02-01T09:55:43.701Z,14.87
2018-02-01T09:58:09.692Z,13.77
2018-02-01T10:00:35.718Z,12.47
2018-02-01T10:03:01.696Z,13.30
2018-02-01T10:05:31.366Z,11.60
2018-02-01T10:07:57.389Z,12.33
2018-02-01T10:10:23.369Z,15.33
2018-02-01T10:12:49.384Z,13.33
2018-02-01T10:15:32.540Z,13.40
2018-02-01T10:17:58.589Z,14.17
2018-02-01T10:20:24.609Z,14.07
2018-02-01T10:22:50.628Z,12.67
2018-02-01T10:25:16.657Z,11.77
2018-02-01T10:27:42.690Z,12.67
2018-02-01T10:30:08.737Z,11.67
2018-02-01T10:32:34.761Z,12.63
2018-02-01T10:35:00.758Z,11.80
2018-02-01T10:37:35.561Z,12.33
2018-02-01T10:40:01.549Z,12.87
2018-02-01T10:42:27.531Z,10.93
2018-02-01T10:44:53.561Z,13.73
2018-02-01T10:47:29.993Z,18.77
2018-02-01T10:49:56.016Z,12.37
2018-02-01T10:52:22.001Z,13.90
2018-02-01T10:54:48.013Z,11.90
2018-02-01T10:57:28.665Z,16.27
2018-02-01T10:59:54.698Z,12.20
2018-02-01T11:02:20.689Z,12.50
2018-02-01T11:04:46.709Z,13.17
2018-02-01T11:07:13.737Z,12.87
2018-02-01T11:09:39.712Z,11.83
2018-02-01T11:12:05.740Z,13.63
2018-02-01T11:14:31.786Z,17.00
2018-02-01T11:17:04.860Z,10.97
2018-02-01T11:19:30.850Z,12.70
2018-02-01T11:21:57.815Z,10.13
2018-02-01T11:24:23.805Z,10.50
2018-02-01T11:26:54.069Z,11.00
2018-02-01T11:29:20.087Z,10.90
2018-02-01T11:31:46.122Z,10.97
2018-02-01T11:34:12.101Z,10.33
2018-02-01T11:36:39.329Z,11.40
2018-02-01T11:39:05.304Z,11.63
2018-02-01T11:41:31.321Z,11.53
2018-02-01T11:43:57.332Z,10.37
2018-02-01T11:46:27.405Z,11.93
2018-02-01T11:48:53.397Z,10.50
2018-02-01T11:51:19.419Z,10.87
2018-02-01T11:53:45.405Z,10.50
2018-02-01T11:56:26.785Z,10.60
2018-02-01T11:58:52.812Z,11.07
2018-02-01T12:01:18.800Z,11.57
2018-02-01T12:03:44.828Z,12.30
2018-02-01T12:06:16.781Z,11.37
2018-02-01T12:08:42.851Z,9.70
2018-02-01T12:11:08.813Z,11.27
2018-02-01T12:13:34.853Z,10.40
2018-02-01T12:16:09.448Z,10.83
2018-02-01T12:18:35.461Z,10.10
2018-02-01T12:21:01.486Z,10.03
2018-02-01T12:23:27.502Z,10.27
2018-02-01T12:25:53.557Z,10.70
2018-02-01T12:28:19.569Z,11.03
2018-02-01T12:30:45.556Z,10.10
2018-02-01T12:33:11.590Z,10.00
2018-02-01T12:35:47.614Z,11.77
2018-02-01T12:38:13.633Z,15.70
2018-02-01T12:40:39.677Z,14.00
2018-02-01T12:43:05.721Z,13.90
2018-02-01T12:45:32.729Z,16.13
2018-02-01T12:47:58.722Z,11.03
2018-02-01T12:50:24.742Z,9.93
2018-02-01T12:52:50.725Z,9.67
2018-02-01T12:55:23.192Z,10.57
2018-02-01T12:57:49.209Z,11.93
2018-02-01T13:00:15.230Z,10.30
2018-02-01T13:02:41.257Z,10.63
2018-02-01T13:05:08.277Z,9.40
2018-02-01T13:07:34.301Z,8.93
2018-02-01T13:10:00.366Z,8.07
2018-02-01T13:12:26.345Z,8.80
2018-02-01T13:15:06.197Z,12.00
2018-02-01T13:17:32.218Z,11.57
2018-02-01T13:19:58.232Z,9.50
2018-02-01T13:22:24.254Z,9.40
2018-02-01T13:24:50.289Z,10.97
2018-02-01T13:27:16.309Z,9.73
2018-02-01T13:29:42.329Z,11.20
2018-02-01T13:32:08.333Z,9.60
2018-02-01T13:34:34.353Z,9.80
2018-02-01T13:37:06.239Z,10.27
2018-02-01T13:39:32.258Z,11.70
2018-02-01T13:41:58.276Z,10.47
2018-02-01T13:44:24.285Z,9.93
2018-02-01T13:47:02.840Z,10.77
2018-02-01T13:49:28.905Z,11.07
2018-02-01T13:51:54.921Z,11.10
2018-02-01T13:54:20.945Z,11.13
2018-02-01T13:56:50.293Z,10.97
2018-02-01T13:59:16.309Z,11.93
2018-02-01T14:01:42.293Z,12.43
2018-02-01T14:04:08.277Z,11.73
2018-02-01T14:06:36.551Z,14.20
2018-02-01T14:09:02.604Z,13.07
2018-02-01T14:11:28.625Z,12.33
2018-02-01T14:13:54.658Z,13.37
2018-02-01T14:16:22.642Z,15.87
2018-02-01T14:18:48.684Z,18.50
2018-02-01T14:21:14.668Z,13.83
2018-02-01T14:23:40.729Z,15.40
2018-02-01T14:26:24.257Z,15.57
2018-02-01T14:28:50.289Z,14.70
2018-02-01T14:31:16.317Z,14.53
2018-02-01T14:33:42.336Z,13.40
2018-02-01T14:36:09.325Z,16.33
2018-02-01T14:38:35.396Z,17.03
2018-02-01T14:41:01.409Z,16.83
2018-02-01T14:43:27.429Z,16.90
2018-02-01T14:45:57.104Z,18.43
2018-02-01T14:48:23.125Z,18.50
2018-02-01T14:50:49.145Z,18.67
2018-02-01T14:53:15.124Z,17.67
2018-02-01T14:55:47.813Z,26.47
2018-02-01T14:58:13.860Z,23.13
2018-02-01T15:00:39.872Z,20.43
2018-02-01T15:03:05.896Z,21.53
2018-02-01T15:05:32.932Z,21.90
2018-02-01T15:07:58.924Z,19.70
2018-02-01T15:10:24.978Z,21.30
2018-02-01T15:12:50.976Z,22.17
2018-02-01T15:15:24.156Z,25.27
2018-02-01T15:17:50.173Z,25.87
2018-02-01T15:20:16.189Z,31.47
2018-02-01T15:22:42.217Z,43.43
2018-02-01T15:25:16.533Z,38.37
2018-02-01T15:27:42.544Z,44.23
2018-02-01T15:30:08.581Z,48.10
2018-02-01T15:32:49.157Z,57.37
2018-02-01T15:35:15.225Z,50.47
2018-02-01T15:37:41.254Z,48.23
2018-02-01T15:40:22.169Z,47.30
2018-02-01T15:42:48.177Z,46.20
2018-02-01T15:45:14.309Z,43.17
2018-02-01T15:47:40.295Z,50.40
2018-02-01T15:52:58.924Z,40.12
2018-02-01T15:55:28.209Z,37.10
2018-02-01T15:57:54.227Z,34.07
2018-02-01T16:00:20.266Z,35.57
2018-02-01T16:02:46.293Z,40.53
2018-02-01T16:05:12.356Z,32.63
2018-02-01T16:07:38.349Z,37.00
2018-02-01T16:10:04.386Z,37.57
2018-02-01T16:12:30.373Z,44.87
2018-02-01T16:15:02.819Z,53.57
2018-02-01T16:17:28.849Z,50.10
2018-02-01T16:19:55.399Z,45.70
2018-02-01T16:22:21.381Z,43.47
2018-02-01T16:24:52.285Z,39.47
2018-02-01T16:27:18.313Z,43.50
2018-02-01T16:29:44.357Z,51.70
2018-02-01T16:32:10.430Z,49.13
2018-02-01T16:34:45.288Z,45.80
2018-02-01T16:37:11.269Z,37.93
2018-02-01T16:39:37.301Z,39.03
2018-02-01T16:42:03.338Z,56.93
2018-02-01T16:44:35.391Z,58.80
2018-02-01T16:47:01.396Z,59.80
2018-02-01T16:49:27.421Z,53.20
2018-02-01T16:51:53.450Z,65.33
2018-02-01T16:54:27.513Z,57.17
2018-02-01T16:56:53.541Z,70.40
2018-02-01T16:59:19.561Z,63.60
2018-02-01T17:01:45.589Z,54.10
2018-02-01T17:04:11.601Z,66.07
2018-02-01T17:06:37.609Z,63.00
2018-02-01T17:09:03.673Z,71.30
2018-02-01T17:11:29.711Z,51.37
2018-02-01T17:13:55.783Z,49.40
2018-02-01T17:16:28.441Z,72.47
2018-02-01T17:18:54.483Z,68.87
2018-02-01T17:21:20.529Z,51.20
2018-02-01T17:23:46.572Z,63.63
2018-02-01T17:26:27.320Z,71.03
2018-02-01T17:28:53.351Z,62.97
2018-02-01T17:31:19.353Z,86.50
2018-02-01T17:33:45.374Z,97.37
2018-02-01T17:36:17.478Z,100.00
2018-02-01T17:38:43.461Z,95.97
2018-02-01T17:41:09.481Z,91.70
2018-02-01T17:43:35.537Z,79.77
2018-02-01T17:46:12.825Z,85.07
2018-02-01T17:48:38.844Z,77.73
2018-02-01T17:51:04.833Z,81.50
2018-02-01T17:53:30.877Z,83.93
2018-02-01T17:56:05.233Z,80.33
2018-02-01T17:58:31.286Z,68.67
2018-02-01T18:00:58.350Z,62.53
2018-02-01T18:03:24.780Z,58.87
2018-02-01T18:05:57.082Z,56.00
2018-02-01T18:08:23.531Z,59.33
2018-02-01T18:10:49.529Z,57.27
2018-02-01T18:13:15.617Z,51.97
2018-02-01T18:15:49.490Z,54.87
2018-02-01T18:18:16.100Z,61.03
2018-02-01T18:20:42.102Z,51.00
2018-02-01T18:23:08.856Z,53.77
2018-02-01T18:25:51.022Z,55.20
2018-02-01T18:28:17.060Z,52.33
2018-02-01T18:30:43.083Z,68.00
2018-02-01T18:33:09.147Z,457.60
2018-02-01T18:35:42.226Z,147.80
2018-02-01T18:38:08.261Z,69.37
2018-02-01T18:40:34.285Z,81.23
2018-02-01T18:43:00.318Z,55.00
2018-02-01T18:45:28.369Z,51.37
2018-02-01T18:47:54.446Z,52.07
2018-02-01T18:50:20.455Z,53.97
2018-02-01T18:52:46.500Z,57.43
2018-02-01T18:55:12.577Z,70.63
2018-02-01T18:57:38.606Z,71.30
2018-02-01T19:00:04.603Z,60.03
2018-02-01T19:02:31.368Z,74.43
2018-02-01T19:04:57.551Z,83.70
2018-02-01T19:07:23.892Z,63.70
2018-02-01T19:09:49.913Z,58.03
2018-02-01T19:12:15.962Z,55.50
2018-02-01T19:14:47.014Z,55.03
2018-02-01T19:23:57.129Z,75.17
2018-02-01T19:26:23.160Z,58.27
2018-02-01T19:28:49.203Z,50.67
2018-02-01T19:31:15.257Z,47.43
2018-02-01T19:33:41.288Z,42.03
2018-02-01T19:36:07.304Z,54.53
2018-02-01T19:38:33.289Z,57.57
2018-02-01T19:41:00.073Z,78.73
2018-02-01T19:43:26.098Z,57.93
2018-02-01T19:45:59.581Z,61.73
2018-02-01T19:48:25.610Z,63.03
2018-02-01T19:50:51.605Z,66.93
2018-02-01T19:53:17.622Z,49.77
2018-02-01T19:55:43.680Z,54.80
2018-02-01T19:58:09.664Z,48.33
2018-02-01T20:00:35.720Z,53.27
2018-02-01T20:03:01.733Z,49.40
2018-02-01T20:05:33.555Z,51.00
2018-02-01T20:07:59.583Z,49.87
2018-02-01T20:10:25.578Z,51.13
2018-02-01T20:12:51.577Z,47.97
2018-02-01T20:15:18.757Z,51.83
2018-02-01T20:17:44.790Z,51.47
2018-02-01T20:20:10.770Z,50.80
2018-02-01T20:22:36.764Z,52.93
2018-02-01T20:25:02.968Z,47.17
2018-02-01T20:27:28.986Z,42.93
2018-02-01T20:29:54.962Z,44.77
2018-02-01T20:32:21.085Z,48.37
2018-02-01T20:34:55.173Z,49.53
2018-02-01T20:37:21.174Z,48.17
2018-02-01T20:39:47.189Z,40.90
2018-02-01T20:42:13.215Z,39.60
2018-02-01T20:44:45.624Z,43.23
2018-02-01T20:47:11.650Z,41.43
2018-02-01T20:49:37.670Z,44.33
2018-02-01T20:52:03.724Z,41.87
2018-02-01T20:54:29.856Z,47.27
2018-02-01T20:56:55.869Z,42.57
2018-02-01T20:59:21.885Z,45.40
2018-02-01T21:01:47.900Z,41.40
2018-02-01T21:04:18.925Z,43.57
2018-02-01T21:06:44.991Z,46.47
2018-02-01T21:09:11.001Z,43.93
2018-02-01T21:11:37.017Z,48.13
2018-02-01T21:14:03.157Z,45.43
2018-02-01T21:16:29.169Z,44.53
2018-02-01T21:18:55.157Z,40.73
2018-02-01T21:21:21.173Z,44.63
2018-02-01T21:23:48.336Z,42.70
2018-02-01T21:26:14.361Z,37.23
2018-02-01T21:28:40.378Z,47.90
2018-02-01T21:31:06.400Z,44.63
2018-02-01T21:33:32.376Z,43.13
2018-02-01T21:35:58.405Z,45.30
2018-02-01T21:38:24.509Z,42.47
2018-02-01T21:40:50.488Z,46.33
2018-02-01T21:43:16.477Z,50.57
2018-02-01T21:45:43.720Z,52.43
2018-02-01T21:48:09.705Z,55.53
2018-02-01T21:50:35.760Z,38.17
2018-02-01T21:53:01.772Z,38.87
2018-02-01T21:55:29.920Z,50.93
2018-02-01T21:57:55.940Z,48.53
2018-02-01T22:00:21.933Z,39.83
2018-02-01T22:02:47.948Z,46.40
2018-02-01T22:05:20.013Z,49.10
2018-02-01T22:07:45.981Z,51.63
2018-02-01T22:10:12.013Z,48.67
2018-02-01T22:12:38.024Z,46.30
2018-02-01T22:15:10.460Z,45.10
2018-02-01T22:17:36.488Z,46.53
2018-02-01T22:20:02.520Z,48.60
2018-02-01T22:22:28.501Z,39.87
2018-02-01T22:25:00.812Z,38.33
2018-02-01T22:27:26.798Z,44.77
2018-02-01T22:29:52.813Z,43.60
2018-02-01T22:32:18.825Z,44.63
2018-02-01T22:34:45.953Z,46.17
2018-02-01T22:37:11.979Z,43.70
2018-02-01T22:39:37.961Z,40.80
2018-02-01T22:42:03.996Z,34.70
2018-02-01T22:44:43.841Z,42.57
2018-02-01T22:47:09.853Z,37.40
2018-02-01T22:49:35.876Z,32.90
2018-02-01T22:52:01.857Z,42.80
2018-02-01T22:54:40.837Z,39.47
2018-02-01T22:57:06.844Z,40.80
2018-02-01T22:59:32.823Z,37.57
2018-02-01T23:01:58.838Z,34.23
2018-02-01T23:04:40.393Z,38.60
2018-02-01T23:07:06.400Z,40.93
2018-02-01T23:09:32.412Z,38.13
2018-02-01T23:11:58.425Z,36.30
2018-02-01T23:14:25.442Z,40.43
2018-02-01T23:16:51.416Z,36.87
2018-02-01T23:19:17.428Z,36.87
2018-02-01T23:21:43.412Z,38.67
2018-02-01T23:24:13.290Z,38.30
2018-02-01T23:26:39.268Z,37.40
2018-02-01T23:29:05.503Z,35.70
2018-02-01T23:31:31.548Z,33.80
2018-02-01T23:33:58.530Z,40.33
2018-02-01T23:36:24.521Z,36.33
2018-02-01T23:38:50.497Z,37.87
2018-02-01T23:41:16.521Z,38.07
2018-02-01T23:43:52.505Z,38.53
2018-02-01T23:46:18.529Z,39.87
2018-02-01T23:48:44.504Z,37.50
2018-02-01T23:51:10.485Z,40.20
2018-02-01T23:53:48.989Z,38.73
2018-02-01T23:56:14.969Z,40.53
2018-02-01T23:58:40.984Z,41.53
